Time,TemperatureF,DewpointF,PressureIn,WindDirection,WindDirectionDegrees,WindSpeedMPH,WindSpeedGustMPH,Humidity,HourlyPrecipIn,Conditions,Clouds,dailyrainin,SoftwareType,DateUTC
2013-07-18 00:00:00,80.6,72.4,30.03,SSE,158,2.0,2.0,76,0.00,,,0.00,WUHU216HW,2013-07-18 04:00:00,
2013-07-18 00:01:00,80.6,72.4,30.03,SSE,158,2.0,2.0,76,0.00,,,0.00,WUHU216HW,2013-07-18 04:01:00,
2013-07-18 00:06:00,80.6,72.4,30.03,SSE,158,2.0,2.0,76,0.00,,,0.00,WUHU216HW,2013-07-18 04:06:00,
2013-07-18 00:30:00,79.9,71.6,30.04,ESE,113,0.4,0.4,76,0.00,,,0.00,WUHU216HW,2013-07-18 04:30:00,
2013-07-18 00:35:00,79.9,71.6,30.04,ESE,113,0.4,0.4,76,0.00,,,0.00,WUHU216HW,2013-07-18 04:35:00,
2013-07-18 01:00:00,79.6,71.7,30.05,NNW,338,0.0,0.0,77,0.00,,,0.00,WUHU216HW,2013-07-18 05:00:00,
2013-07-18 01:05:00,79.6,71.7,30.05,NNW,338,0.0,0.0,77,0.00,,,0.00,WUHU216HW,2013-07-18 05:05:00,
2013-07-18 01:30:00,79.0,71.2,30.04,ENE,68,0.0,0.0,77,0.00,,,0.00,WUHU216HW,2013-07-18 05:30:00,
2013-07-18 01:35:00,79.0,71.2,30.04,ENE,68,0.0,0.0,77,0.00,,,0.00,WUHU216HW,2013-07-18 05:35:00,
2013-07-18 02:00:00,78.8,71.4,30.03,NNE,23,0.0,0.0,78,0.00,,,0.00,WUHU216HW,2013-07-18 06:00:00,
2013-07-18 02:05:00,78.8,71.4,30.03,NNE,23,0.0,0.0,78,0.00,,,0.00,WUHU216HW,2013-07-18 06:05:00,
2013-07-18 02:30:00,78.3,70.8,30.02,NNE,23,0.0,0.0,78,0.00,,,0.00,WUHU216HW,2013-07-18 06:30:00,
2013-07-18 02:35:00,78.3,70.8,30.02,NNE,23,0.0,0.0,78,0.00,,,0.00,WUHU216HW,2013-07-18 06:35:00,
2013-07-18 03:00:00,77.8,71.1,30.01,NNE,23,0.0,0.0,80,0.00,,,0.00,WUHU216HW,2013-07-18 07:00:00,
2013-07-18 03:05:00,77.8,71.1,30.01,NNE,23,0.0,0.0,80,0.00,,,0.00,WUHU216HW,2013-07-18 07:05:00,
2013-07-18 03:30:00,77.4,71.1,30.00,NNE,23,0.0,0.0,81,0.00,,,0.00,WUHU216HW,2013-07-18 07:30:00,
2013-07-18 03:35:00,77.4,71.1,30.00,NNE,23,0.0,0.0,81,0.00,,,0.00,WUHU216HW,2013-07-18 07:35:00,
2013-07-18 04:00:00,76.9,70.6,30.00,NNE,23,0.0,0.0,81,0.00,,,0.00,WUHU216HW,2013-07-18 08:00:00,
2013-07-18 04:05:00,76.9,70.6,30.00,NNE,23,0.0,0.0,81,0.00,,,0.00,WUHU216HW,2013-07-18 08:05:00,
2013-07-18 04:30:00,76.7,70.4,30.00,NNE,23,0.0,0.0,81,0.00,,,0.00,WUHU216HW,2013-07-18 08:30:00,
2013-07-18 04:35:00,76.7,70.4,30.00,NNE,23,0.0,0.0,81,0.00,,,0.00,WUHU216HW,2013-07-18 08:35:00,
2013-07-18 05:00:00,75.8,70.3,30.01,NNW,338,0.0,0.0,83,0.00,,,0.00,WUHU216HW,2013-07-18 09:00:00,
2013-07-18 05:05:00,75.8,70.3,30.01,NNW,338,0.0,0.0,83,0.00,,,0.00,WUHU216HW,2013-07-18 09:05:00,
2013-07-18 05:30:00,75.4,69.9,30.01,NNW,338,0.0,0.0,83,0.00,,,0.00,WUHU216HW,2013-07-18 09:30:00,
2013-07-18 05:35:00,75.4,69.9,30.01,NNW,338,0.0,0.0,83,0.00,,,0.00,WUHU216HW,2013-07-18 09:35:00,
2013-07-18 06:00:00,75.1,70.3,30.03,NNW,338,0.0,0.0,85,0.00,,,0.00,WUHU216HW,2013-07-18 10:00:00,
2013-07-18 06:05:00,75.1,70.3,30.03,NNW,338,0.0,0.0,85,0.00,,,0.00,WUHU216HW,2013-07-18 10:05:00,
2013-07-18 06:30:00,75.2,70.5,30.02,NNW,338,0.0,0.0,85,0.00,,,0.00,WUHU216HW,2013-07-18 10:30:00,
2013-07-18 06:35:00,75.2,70.5,30.02,NNW,338,0.0,0.0,85,0.00,,,0.00,WUHU216HW,2013-07-18 10:35:00,
2013-07-18 07:00:00,76.3,71.5,30.03,WNW,293,0.0,0.0,85,0.00,,,0.00,WUHU216HW,2013-07-18 11:00:00,
2013-07-18 07:05:00,76.3,71.5,30.03,WNW,293,0.0,0.0,85,0.00,,,0.00,WUHU216HW,2013-07-18 11:05:00,
2013-07-18 07:30:00,78.7,73.4,30.04,NW,315,0.0,0.0,84,0.00,,,0.00,WUHU216HW,2013-07-18 11:30:00,
2013-07-18 07:35:00,78.7,73.4,30.04,NW,315,0.0,0.0,84,0.00,,,0.00,WUHU216HW,2013-07-18 11:35:00,
2013-07-18 08:00:00,81.0,74.3,30.04,WNW,293,1.1,1.1,80,0.00,,,0.00,WUHU216HW,2013-07-18 12:00:00,
2013-07-18 08:05:00,81.0,74.3,30.04,WNW,293,1.1,1.1,80,0.00,,,0.00,WUHU216HW,2013-07-18 12:05:00,
2013-07-18 08:30:00,82.6,75.2,30.04,NE,45,0.0,0.0,78,0.00,,,0.00,WUHU216HW,2013-07-18 12:30:00,
2013-07-18 08:35:00,82.6,75.2,30.04,NE,45,0.0,0.0,78,0.00,,,0.00,WUHU216HW,2013-07-18 12:35:00,
2013-07-18 09:00:00,84.6,75.0,30.05,NNE,23,1.3,1.3,73,0.00,,,0.00,WUHU216HW,2013-07-18 13:00:00,
2013-07-18 09:05:00,84.6,75.0,30.05,NNE,23,1.3,1.3,73,0.00,,,0.00,WUHU216HW,2013-07-18 13:05:00,